createdAt,value
2022-09-12T00:01:50.934Z,9.40
2022-09-12T00:04:17.610Z,8.90
2022-09-12T00:06:44.396Z,9.60
2022-09-12T00:09:12.263Z,9.50
2022-09-12T00:11:40.154Z,9.30
2022-09-12T00:14:07.366Z,9.70
2022-09-12T00:16:34.923Z,9.00
2022-09-12T00:19:01.608Z,9.80
2022-09-12T00:21:28.320Z,9.10
2022-09-12T00:23:55.172Z,9.20
2022-09-12T00:26:22.180Z,9.60
2022-09-12T00:28:49.018Z,10.10
2022-09-12T00:31:21.318Z,9.80
2022-09-12T00:33:48.563Z,9.40
2022-09-12T00:36:17.752Z,9.30
2022-09-12T00:38:44.758Z,9.10
2022-09-12T00:41:28.785Z,9.20
2022-09-12T00:44:00.167Z,8.80
2022-09-12T00:46:29.734Z,9.20
2022-09-12T00:49:14.164Z,8.50
2022-09-12T00:51:43.696Z,8.90
2022-09-12T00:54:15.320Z,8.80
2022-09-12T00:56:42.140Z,8.70
2022-09-12T00:59:12.721Z,8.50
2022-09-12T01:01:40.016Z,8.30
2022-09-12T01:04:06.836Z,8.30
2022-09-12T01:06:36.532Z,8.00
2022-09-12T01:09:04.694Z,8.50
2022-09-12T01:11:34.694Z,8.40
2022-09-12T01:14:01.376Z,8.10
2022-09-12T01:16:28.130Z,7.90
2022-09-12T01:19:22.920Z,8.00
2022-09-12T01:22:20.817Z,8.30
2022-09-12T01:25:12.571Z,7.90
2022-09-12T01:27:42.245Z,8.40
2022-09-12T01:30:30.973Z,8.30
2022-09-12T01:33:05.245Z,7.90
2022-09-12T01:36:04.396Z,8.10
2022-09-12T01:38:47.072Z,7.80
2022-09-12T01:41:30.744Z,7.80
2022-09-12T01:44:22.780Z,7.80
2022-09-12T01:47:24.166Z,7.80
2022-09-12T01:50:15.893Z,8.10
2022-09-12T01:52:50.016Z,7.30
2022-09-12T01:55:22.686Z,7.60
2022-09-12T01:57:52.745Z,9.40
2022-09-12T02:00:19.446Z,8.30
2022-09-12T02:03:13.901Z,7.70
2022-09-12T02:05:45.006Z,7.30
2022-09-12T02:08:17.811Z,7.20
2022-09-12T02:10:54.171Z,7.40
2022-09-12T02:13:23.616Z,7.30
2022-09-12T02:15:55.385Z,6.90
2022-09-12T02:18:22.065Z,6.80
2022-09-12T02:20:49.373Z,6.50
2022-09-12T02:23:22.422Z,6.50
2022-09-12T02:25:51.213Z,5.80
2022-09-12T02:28:19.908Z,5.70
2022-09-12T02:30:53.051Z,5.40
2022-09-12T02:33:26.710Z,5.00
2022-09-12T02:35:58.077Z,5.00
2022-09-12T02:38:32.018Z,4.50
2022-09-12T02:40:58.684Z,4.40
2022-09-12T02:43:25.316Z,3.90
2022-09-12T02:45:52.034Z,3.60
2022-09-12T02:48:24.190Z,3.60
2022-09-12T02:50:50.827Z,3.60
2022-09-12T02:53:17.468Z,3.40
2022-09-12T02:55:44.077Z,3.30
2022-09-12T02:58:16.872Z,3.40
2022-09-12T03:00:55.012Z,3.10
2022-09-12T03:03:43.692Z,2.90
2022-09-12T03:06:18.436Z,2.90
2022-09-12T03:08:55.709Z,3.20
2022-09-12T03:11:40.903Z,2.90
2022-09-12T03:14:36.445Z,2.80
2022-09-12T03:17:18.957Z,3.00
2022-09-12T03:19:53.549Z,2.80
2022-09-12T03:22:38.528Z,3.00
2022-09-12T03:25:17.816Z,2.40
2022-09-12T03:27:46.734Z,2.40
2022-09-12T03:30:13.520Z,2.30
2022-09-12T03:32:48.084Z,2.10
2022-09-12T03:35:15.387Z,1.90
2022-09-12T03:37:42.196Z,1.70
2022-09-12T03:40:09.905Z,1.60
2022-09-12T03:42:36.564Z,1.40
2022-09-12T03:45:03.425Z,1.60
2022-09-12T03:47:30.226Z,1.60
2022-09-12T03:49:57.047Z,1.60
2022-09-12T03:52:24.037Z,1.40
2022-09-12T03:54:50.674Z,1.20
2022-09-12T03:57:17.380Z,1.20
2022-09-12T03:59:43.999Z,1.20
2022-09-12T04:02:13.269Z,1.20
2022-09-12T04:04:43.330Z,1.20
2022-09-12T04:07:10.843Z,1.20
2022-09-12T04:09:37.677Z,1.00
2022-09-12T04:12:04.749Z,1.10
2022-09-12T04:14:31.379Z,1.10
2022-09-12T04:16:58.025Z,1.10
2022-09-12T04:19:25.900Z,1.10
2022-09-12T04:21:52.558Z,1.00
2022-09-12T04:24:19.263Z,0.90
2022-09-12T04:26:45.940Z,0.90
2022-09-12T04:29:12.760Z,0.90
2022-09-12T04:31:39.540Z,0.80
2022-09-12T04:34:06.305Z,0.80
2022-09-12T04:36:34.468Z,0.80
2022-09-12T04:39:01.492Z,0.70
2022-09-12T04:41:30.786Z,0.60
2022-09-12T04:44:02.368Z,0.60
2022-09-12T04:46:30.493Z,0.50
2022-09-12T04:48:57.343Z,0.70
2022-09-12T04:51:28.943Z,0.50
2022-09-12T04:54:00.325Z,0.60
2022-09-12T04:56:27.169Z,0.50
2022-09-12T04:58:53.909Z,0.40
2022-09-12T05:01:21.444Z,0.50
2022-09-12T05:03:48.505Z,0.60
2022-09-12T05:06:20.100Z,0.70
2022-09-12T05:08:46.986Z,0.80
2022-09-12T05:11:15.426Z,0.70
2022-09-12T05:13:42.344Z,0.80
2022-09-12T05:16:10.997Z,0.70
2022-09-12T05:18:37.905Z,0.50
2022-09-12T05:21:06.387Z,0.60
2022-09-12T05:23:33.960Z,0.70
2022-09-12T05:26:00.785Z,0.60
2022-09-12T05:28:32.753Z,0.80
2022-09-12T05:31:03.511Z,0.80
2022-09-12T05:33:31.000Z,0.70
2022-09-12T05:35:57.674Z,0.80
2022-09-12T05:38:29.053Z,0.70
2022-09-12T05:41:12.400Z,0.60
2022-09-12T05:43:43.080Z,0.80
2022-09-12T05:46:14.036Z,0.90
2022-09-12T05:48:41.750Z,0.70
2022-09-12T05:51:10.378Z,0.80
2022-09-12T05:53:37.478Z,0.80
2022-09-12T05:56:11.873Z,0.90
2022-09-12T05:58:40.111Z,0.60
2022-09-12T06:01:14.724Z,0.80
2022-09-12T06:03:46.539Z,0.60
2022-09-12T06:06:13.791Z,0.60
2022-09-12T06:08:42.047Z,0.80
2022-09-12T06:11:09.730Z,0.70
2022-09-12T06:13:36.997Z,0.80
2022-09-12T06:16:05.458Z,0.80
2022-09-12T06:18:32.938Z,0.70
2022-09-12T06:21:09.020Z,0.70
2022-09-12T06:23:38.563Z,0.60
2022-09-12T06:26:06.142Z,0.80
2022-09-12T06:28:32.885Z,0.70
2022-09-12T06:31:11.293Z,0.90
2022-09-12T06:33:39.694Z,0.80
2022-09-12T06:36:17.470Z,0.70
2022-09-12T06:38:46.304Z,0.60
2022-09-12T06:41:13.273Z,0.90
2022-09-12T06:43:40.376Z,0.70
2022-09-12T06:46:07.623Z,1.10
2022-09-12T06:48:36.476Z,0.90
2022-09-12T06:51:09.200Z,0.70
2022-09-12T06:53:38.813Z,0.50
2022-09-12T06:56:09.963Z,0.60
2022-09-12T06:58:36.677Z,0.70
2022-09-12T07:01:08.462Z,0.70
2022-09-12T07:03:35.344Z,0.60
2022-09-12T07:06:06.768Z,0.60
2022-09-12T07:08:34.523Z,0.70
2022-09-12T07:11:08.932Z,0.70
2022-09-12T07:13:35.731Z,0.70
2022-09-12T07:16:04.012Z,0.70
2022-09-12T07:18:31.044Z,0.70
2022-09-12T07:21:00.868Z,0.70
2022-09-12T07:23:28.212Z,0.70
2022-09-12T07:25:57.185Z,0.70
2022-09-12T07:28:28.223Z,0.60
2022-09-12T07:30:55.932Z,0.70
2022-09-12T07:33:29.033Z,0.90
2022-09-12T07:36:01.089Z,0.90
2022-09-12T07:38:27.707Z,0.80
2022-09-12T07:40:54.444Z,0.90
2022-09-12T07:43:21.122Z,0.90
2022-09-12T07:45:47.796Z,1.00
2022-09-12T07:48:14.485Z,1.00
2022-09-12T07:50:45.056Z,1.00
2022-09-12T07:53:12.111Z,0.90
2022-09-12T07:55:38.732Z,1.40
2022-09-12T07:58:05.384Z,1.40
2022-09-12T08:00:35.939Z,1.60
2022-09-12T08:03:07.307Z,1.60
2022-09-12T08:05:34.062Z,1.50
2022-09-12T08:08:00.696Z,1.70
2022-09-12T08:10:27.540Z,1.70
2022-09-12T08:12:54.327Z,1.60
2022-09-12T08:15:20.988Z,1.70
2022-09-12T08:17:47.620Z,1.80
2022-09-12T08:20:14.377Z,1.50
2022-09-12T08:22:41.138Z,1.50
2022-09-12T08:25:08.702Z,1.40
2022-09-12T08:27:35.428Z,1.40
2022-09-12T08:30:02.256Z,3.50
2022-09-12T08:32:29.070Z,7.40
2022-09-12T08:34:56.200Z,3.10
2022-09-12T08:37:32.212Z,14.90
2022-09-12T08:39:59.179Z,7.20
2022-09-12T08:42:52.903Z,3.40
2022-09-12T08:45:22.966Z,2.50
2022-09-12T08:47:49.567Z,3.70
2022-09-12T08:50:20.710Z,5.30
2022-09-12T08:52:53.863Z,6.40
2022-09-12T08:55:32.886Z,4.10
2022-09-12T08:58:00.957Z,5.00
2022-09-12T09:00:33.313Z,2.80
2022-09-12T09:03:08.751Z,2.50
2022-09-12T09:05:59.254Z,1.20
2022-09-12T09:08:44.834Z,1.40
2022-09-12T09:11:17.323Z,1.20
2022-09-12T09:14:32.866Z,1.20
2022-09-12T09:16:59.499Z,1.10
2022-09-12T09:19:33.006Z,1.00
2022-09-12T09:22:32.060Z,0.90
2022-09-12T09:25:05.462Z,1.10
2022-09-12T09:30:15.413Z,0.90
2022-09-12T09:35:37.974Z,0.90
2022-09-12T09:38:07.975Z,0.90
2022-09-12T09:40:41.485Z,0.90
2022-09-12T09:43:19.756Z,1.10
2022-09-12T09:45:47.916Z,1.00
2022-09-12T09:48:23.501Z,0.80
2022-09-12T09:50:50.458Z,0.90
2022-09-12T09:53:25.420Z,1.10
2022-09-12T09:55:52.051Z,1.20
2022-09-12T09:58:29.569Z,1.00
2022-09-12T10:01:07.195Z,1.00
2022-09-12T10:03:37.505Z,1.00
2022-09-12T10:06:08.352Z,1.00
2022-09-12T10:08:36.520Z,1.00
2022-09-12T10:11:16.703Z,0.90
2022-09-12T10:16:31.829Z,1.60
2022-09-12T10:18:59.884Z,1.10
2022-09-12T10:21:41.328Z,1.10
2022-09-12T10:24:29.538Z,1.10
2022-09-12T10:27:12.562Z,1.30
2022-09-12T10:29:51.839Z,1.20
2022-09-12T10:32:30.384Z,1.30
2022-09-12T10:35:02.784Z,1.10
2022-09-12T10:37:34.396Z,1.10
2022-09-12T10:40:01.603Z,1.30
2022-09-12T10:42:57.254Z,1.30
2022-09-12T10:45:32.108Z,1.40
2022-09-12T10:48:07.514Z,1.50
2022-09-12T10:50:41.705Z,1.70
2022-09-12T10:53:25.495Z,1.60
2022-09-12T10:56:31.422Z,1.30
2022-09-12T10:59:19.918Z,1.20
2022-09-12T11:02:00.470Z,1.30
2022-09-12T11:05:04.698Z,1.30
2022-09-12T11:07:38.350Z,1.30
2022-09-12T11:10:38.012Z,2.20
2022-09-12T11:13:11.968Z,2.00
2022-09-12T11:15:49.393Z,1.90
2022-09-12T11:18:16.091Z,1.80
2022-09-12T11:21:14.141Z,1.40
2022-09-12T11:23:56.436Z,1.40
2022-09-12T11:26:50.747Z,1.30
2022-09-12T11:29:27.936Z,1.20
2022-09-12T11:32:32.224Z,1.40
2022-09-12T11:37:42.151Z,1.40
2022-09-12T11:40:24.244Z,1.30
2022-09-12T11:42:52.720Z,1.30
2022-09-12T11:45:26.827Z,1.40
2022-09-12T11:47:55.040Z,1.30
2022-09-12T11:50:27.034Z,1.50
2022-09-12T11:53:32.269Z,1.30
2022-09-12T11:56:09.445Z,1.40
2022-09-12T11:58:37.128Z,1.40
2022-09-12T12:01:18.118Z,1.20
2022-09-12T12:03:46.150Z,1.30
2022-09-12T12:06:15.854Z,1.70
2022-09-12T12:08:43.764Z,1.30
2022-09-12T12:11:11.001Z,1.10
2022-09-12T12:13:48.260Z,1.20
2022-09-12T12:16:29.248Z,1.00
2022-09-12T12:19:14.846Z,1.00
2022-09-12T12:21:45.785Z,1.00
2022-09-12T12:24:20.353Z,1.00
2022-09-12T12:26:53.088Z,1.10
2022-09-12T12:29:19.724Z,1.10
2022-09-12T12:31:59.154Z,1.00
2022-09-12T12:34:33.564Z,1.00
2022-09-12T12:37:20.291Z,1.20
2022-09-12T12:39:48.290Z,1.40
2022-09-12T12:42:33.868Z,3.50
2022-09-12T12:45:01.255Z,3.80
2022-09-12T12:47:34.536Z,4.60
2022-09-12T12:50:05.608Z,4.80
2022-09-12T12:52:33.801Z,3.10
2022-09-12T12:55:01.509Z,3.50
2022-09-12T12:57:33.494Z,2.10
2022-09-12T13:00:02.664Z,2.20
2022-09-12T13:02:33.224Z,2.70
2022-09-12T13:05:01.191Z,2.00
2022-09-12T13:07:39.122Z,1.80
2022-09-12T13:10:06.998Z,1.50
2022-09-12T13:12:36.017Z,1.50
2022-09-12T13:15:04.128Z,1.60
2022-09-12T13:17:43.712Z,2.20
2022-09-12T13:20:29.655Z,2.80
2022-09-12T13:22:57.233Z,1.90
2022-09-12T13:25:34.620Z,1.20
2022-09-12T13:28:16.573Z,1.20
2022-09-12T13:30:45.594Z,1.20
2022-09-12T13:33:19.978Z,1.40
2022-09-12T13:35:54.144Z,1.20
2022-09-12T13:38:42.755Z,1.30
2022-09-12T13:41:18.784Z,1.20
2022-09-12T13:43:47.121Z,1.30
2022-09-12T13:46:16.613Z,1.60
2022-09-12T13:48:43.716Z,2.30
2022-09-12T13:51:23.141Z,2.20
2022-09-12T13:53:50.744Z,2.40
2022-09-12T13:56:18.093Z,2.30
2022-09-12T13:58:58.835Z,2.30
2022-09-12T14:01:37.384Z,2.40
2022-09-12T14:04:33.348Z,2.90
2022-09-12T14:07:00.597Z,3.20
2022-09-12T14:09:37.058Z,3.20
2022-09-12T14:12:05.720Z,3.50
2022-09-12T14:14:36.861Z,3.20
2022-09-12T14:17:32.458Z,2.70
2022-09-12T14:20:04.119Z,2.20
2022-09-12T14:22:31.044Z,2.00
2022-09-12T14:24:58.937Z,1.70
2022-09-12T14:27:30.201Z,1.80
2022-09-12T14:30:09.178Z,1.50
2022-09-12T14:32:35.968Z,1.40
2022-09-12T14:35:11.893Z,1.40
2022-09-12T14:37:39.003Z,1.30
2022-09-12T14:40:22.439Z,1.50
2022-09-12T14:42:51.045Z,1.50
2022-09-12T14:45:26.350Z,1.30
2022-09-12T14:47:53.514Z,1.10
2022-09-12T14:50:23.394Z,1.20
2022-09-12T14:53:04.435Z,1.30
2022-09-12T14:55:32.618Z,1.20
2022-09-12T14:58:20.179Z,1.40
2022-09-12T15:01:00.331Z,1.80
2022-09-12T15:03:37.060Z,1.90
2022-09-12T15:06:05.236Z,2.50
2022-09-12T15:08:32.085Z,2.10
2022-09-12T15:10:58.964Z,1.80
2022-09-12T15:13:26.717Z,1.70
2022-09-12T15:15:55.797Z,2.20
2022-09-12T15:18:25.874Z,2.50
2022-09-12T15:20:55.280Z,2.50
2022-09-12T15:23:35.387Z,2.60
2022-09-12T15:26:02.755Z,2.50
2022-09-12T15:28:29.800Z,2.50
2022-09-12T15:30:56.975Z,2.60
2022-09-12T15:33:24.769Z,2.60
2022-09-12T15:35:52.296Z,2.60
2022-09-12T15:38:22.054Z,2.80
2022-09-12T15:40:55.869Z,2.80
2022-09-12T15:43:23.470Z,2.70
2022-09-12T15:45:51.498Z,2.80
2022-09-12T15:48:19.042Z,2.70
2022-09-12T15:50:45.901Z,2.40
2022-09-12T15:53:16.316Z,2.60
2022-09-12T15:55:44.229Z,2.70
2022-09-12T15:58:49.985Z,2.40
2022-09-12T16:01:23.039Z,2.50
2022-09-12T16:04:05.329Z,2.40
2022-09-12T16:06:37.217Z,2.70
2022-09-12T16:09:04.577Z,3.30
2022-09-12T16:11:31.282Z,3.90
2022-09-12T16:13:58.362Z,4.30
2022-09-12T16:16:25.367Z,4.10
2022-09-12T16:18:52.500Z,3.50
2022-09-12T16:21:19.284Z,3.00
2022-09-12T16:23:47.926Z,3.10
2022-09-12T16:26:14.677Z,3.10
2022-09-12T16:28:41.690Z,3.30
2022-09-12T16:31:10.165Z,3.40
2022-09-12T16:33:37.185Z,5.20
2022-09-12T16:36:08.356Z,5.90
2022-09-12T16:38:35.948Z,4.80
2022-09-12T16:41:03.670Z,5.60
2022-09-12T16:43:30.615Z,5.00
2022-09-12T16:46:02.970Z,5.60
2022-09-12T16:48:30.217Z,5.70
2022-09-12T16:51:01.978Z,7.50
2022-09-12T16:53:33.238Z,8.30
2022-09-12T16:55:59.858Z,6.80
2022-09-12T16:58:26.875Z,7.60
2022-09-12T17:01:01.558Z,7.70
2022-09-12T17:03:28.422Z,8.20
2022-09-12T17:06:03.089Z,8.30
2022-09-12T17:08:29.953Z,7.90
2022-09-12T17:11:04.356Z,7.00
2022-09-12T17:14:02.800Z,6.70
2022-09-12T17:16:18.016Z,6.80
2022-09-12T17:18:45.085Z,7.00
2022-09-12T17:21:11.830Z,6.70
2022-09-12T17:23:39.216Z,6.20
2022-09-12T17:26:06.085Z,6.00
2022-09-12T17:28:32.891Z,6.50
2022-09-12T17:31:01.234Z,6.70
2022-09-12T17:33:28.036Z,8.20
2022-09-12T17:35:54.885Z,9.20
2022-09-12T17:38:25.119Z,8.70
2022-09-12T17:40:59.477Z,7.50
2022-09-12T17:43:26.626Z,7.10
2022-09-12T17:45:57.307Z,6.30
2022-09-12T17:48:24.057Z,4.60
2022-09-12T17:50:50.739Z,4.10
2022-09-12T17:53:18.176Z,4.00
2022-09-12T17:55:45.110Z,3.80
2022-09-12T17:58:14.411Z,3.70
2022-09-12T18:00:59.789Z,3.80
2022-09-12T18:03:26.692Z,5.20
2022-09-12T18:05:54.840Z,5.80
2022-09-12T18:08:22.318Z,5.50
2022-09-12T18:10:49.764Z,6.00
2022-09-12T18:13:16.426Z,5.80
2022-09-12T18:15:43.138Z,6.00
2022-09-12T18:18:09.834Z,6.10
2022-09-12T18:20:36.455Z,6.40
2022-09-12T18:23:04.264Z,6.20
2022-09-12T18:25:30.909Z,7.30
2022-09-12T18:27:57.577Z,7.90
2022-09-12T18:30:24.212Z,8.10
2022-09-12T18:32:50.967Z,8.90
2022-09-12T18:35:17.643Z,9.70
2022-09-12T18:37:44.952Z,8.40
2022-09-12T18:40:11.952Z,8.40
2022-09-12T18:42:38.644Z,8.30
2022-09-12T18:45:06.001Z,8.10
2022-09-12T18:47:32.749Z,7.80
2022-09-12T18:49:59.455Z,7.40
2022-09-12T18:52:39.110Z,7.10
2022-09-12T18:55:05.947Z,6.80
2022-09-12T18:57:35.023Z,6.70
2022-09-12T19:00:03.463Z,6.10
2022-09-12T19:02:30.282Z,5.30
2022-09-12T19:04:56.926Z,5.20
2022-09-12T19:07:23.542Z,5.10
2022-09-12T19:09:50.356Z,5.00
2022-09-12T19:12:17.024Z,5.40
2022-09-12T19:14:43.706Z,5.40
2022-09-12T19:17:10.645Z,5.90
2022-09-12T19:19:40.490Z,5.80
2022-09-12T19:22:08.190Z,5.70
2022-09-12T19:24:35.901Z,5.80
2022-09-12T19:27:02.930Z,6.00
2022-09-12T19:29:29.697Z,5.60
2022-09-12T19:31:57.268Z,6.00
2022-09-12T19:34:23.944Z,6.20
2022-09-12T19:36:50.557Z,6.70
2022-09-12T19:39:17.665Z,6.10
2022-09-12T19:41:45.030Z,6.30
2022-09-12T19:44:12.663Z,5.70
2022-09-12T19:46:42.795Z,5.10
2022-09-12T19:49:11.116Z,5.10
2022-09-12T19:51:38.286Z,5.10
2022-09-12T19:54:06.211Z,5.30
2022-09-12T19:56:33.268Z,5.20
2022-09-12T19:59:00.330Z,4.80
2022-09-12T20:01:30.591Z,4.60
2022-09-12T20:03:58.194Z,4.80
2022-09-12T20:06:25.625Z,4.70
2022-09-12T20:08:52.477Z,4.90
2022-09-12T20:11:20.059Z,4.80
2022-09-12T20:13:47.175Z,5.10
2022-09-12T20:16:21.821Z,4.90
2022-09-12T20:18:59.709Z,5.10
2022-09-12T20:21:32.308Z,5.30
2022-09-12T20:24:00.847Z,5.00
2022-09-12T20:26:28.349Z,4.90
2022-09-12T20:28:55.796Z,4.80
2022-09-12T20:31:25.993Z,5.20
2022-09-12T20:33:55.754Z,5.10
2022-09-12T20:36:23.045Z,4.80
2022-09-12T20:38:52.073Z,4.90
2022-09-12T20:41:20.439Z,5.10
2022-09-12T20:43:54.377Z,5.20
2022-09-12T20:46:22.592Z,5.00
2022-09-12T20:48:51.323Z,5.70
2022-09-12T20:51:19.491Z,5.40
2022-09-12T20:53:46.478Z,5.70
2022-09-12T20:56:15.101Z,6.60
2022-09-12T20:58:44.399Z,5.40
2022-09-12T21:01:11.961Z,5.20
2022-09-12T21:03:39.164Z,5.40
2022-09-12T21:06:06.983Z,5.30
2022-09-12T21:08:33.689Z,5.30
2022-09-12T21:11:00.467Z,5.90
2022-09-12T21:13:27.224Z,5.70
2022-09-12T21:16:04.817Z,5.70
2022-09-12T21:18:31.989Z,5.00
2022-09-12T21:20:59.059Z,5.40
2022-09-12T21:23:26.037Z,5.00
2022-09-12T21:25:52.944Z,5.20
2022-09-12T21:28:20.058Z,5.10
2022-09-12T21:30:50.112Z,5.20
2022-09-12T21:33:17.445Z,5.20
2022-09-12T21:35:44.469Z,4.50
2022-09-12T21:38:11.384Z,4.90
2022-09-12T21:40:38.138Z,4.50
2022-09-12T21:43:07.164Z,4.20
2022-09-12T21:45:35.901Z,4.30
2022-09-12T21:48:02.849Z,4.30
2022-09-12T21:50:29.502Z,3.90
2022-09-12T21:52:56.103Z,4.50
2022-09-12T21:55:27.268Z,4.20
2022-09-12T21:57:54.784Z,4.20
2022-09-12T22:00:21.917Z,4.10
2022-09-12T22:02:48.811Z,4.00
2022-09-12T22:05:15.623Z,3.70
2022-09-12T22:07:42.389Z,4.00
2022-09-12T22:10:09.464Z,3.90
2022-09-12T22:12:36.104Z,3.50
2022-09-12T22:15:17.511Z,3.70
2022-09-12T22:17:50.567Z,3.70
2022-09-12T22:20:17.479Z,3.60
2022-09-12T22:23:20.175Z,3.30
2022-09-12T22:25:50.549Z,3.50
2022-09-12T22:28:17.194Z,3.40
2022-09-12T22:30:47.764Z,3.30
2022-09-12T22:34:40.209Z,3.60
2022-09-12T22:37:11.227Z,3.30
2022-09-12T22:39:41.623Z,3.20
2022-09-12T22:42:10.159Z,3.30
2022-09-12T22:44:36.928Z,3.00
2022-09-12T22:47:03.797Z,2.90
2022-09-12T22:49:31.012Z,2.90
2022-09-12T22:51:57.739Z,3.00
2022-09-12T22:54:24.479Z,3.00
2022-09-12T22:56:51.145Z,3.10
2022-09-12T22:59:18.312Z,2.70
2022-09-12T23:01:45.007Z,2.60
2022-09-12T23:04:11.805Z,2.80
2022-09-12T23:06:38.444Z,2.60
2022-09-12T23:09:05.106Z,2.80
2022-09-12T23:11:31.769Z,3.00
2022-09-12T23:13:58.420Z,2.90
2022-09-12T23:16:40.562Z,2.60
2022-09-12T23:19:08.504Z,2.70
2022-09-12T23:21:35.243Z,2.80
2022-09-12T23:24:02.297Z,2.80
2022-09-12T23:26:29.734Z,2.70
2022-09-12T23:29:01.213Z,2.80
2022-09-12T23:31:30.319Z,2.90
2022-09-12T23:33:58.393Z,2.80
2022-09-12T23:36:25.536Z,2.60
2022-09-12T23:38:52.264Z,2.50
2022-09-12T23:41:19.013Z,2.40
2022-09-12T23:43:45.828Z,2.60
2022-09-12T23:46:13.367Z,2.30
2022-09-12T23:48:40.160Z,2.60
2022-09-12T23:51:06.781Z,2.30
2022-09-12T23:53:33.669Z,2.40
2022-09-12T23:56:00.328Z,2.40
2022-09-12T23:58:26.994Z,2.20
